Time;durP1;ratioP1;P1;durP2;ratioP2;P2;SDS_P1;SDS_P2;PMS_P1;PMS_P2;Temp;Humidity;BMP_temperature;BMP_pressure;BME280_temperature;BME280_humidity;BME280_pressure;Samples;Min_cycle;Max_cycle;Signal;HPM_P1;HPM_P2
2022/09/03 00:01:06;;;;;;;15.50;13.93;;;;;;;21.87;100.00;99161.38;5071169;28;20211;-71
2022/09/03 00:03:39;;;;;;;15.53;14.23;;;;;;;21.77;100.00;99146.59;5071467;28;20215;-71
2022/09/03 00:06:12;;;;;;;15.57;14.20;;;;;;;21.87;100.00;99174.41;5070401;28;20203;-71
2022/09/03 00:08:44;;;;;;;18.63;14.70;;;;;;;21.87;100.00;99184.84;5071542;28;20196;-70
2022/09/03 00:11:17;;;;;;;15.37;13.83;;;;;;;21.87;100.00;99179.63;5071327;28;20576;-71
2022/09/03 00:13:49;;;;;;;14.30;13.00;;;;;;;21.87;100.00;99174.41;5071468;28;20201;-71
2022/09/03 00:16:20;;;;;;;14.33;13.03;;;;;;;21.86;100.00;99180.59;5071923;28;20219;-71
2022/09/03 00:18:55;;;;;;;15.17;13.87;;;;;;;21.84;100.00;99169.44;5071348;28;20204;-71
2022/09/03 00:21:31;;;;;;;15.70;13.87;;;;;;;21.84;100.00;99174.66;5070776;28;20199;-71
2022/09/03 00:24:01;;;;;;;15.03;13.60;;;;;;;21.76;100.00;99164.00;5071134;28;20679;-71
2022/09/03 00:26:34;;;;;;;17.73;13.53;;;;;;;21.74;100.00;99178.97;5068544;28;20248;-71
2022/09/03 00:29:06;;;;;;;15.60;14.23;;;;;;;21.61;100.00;99160.03;5068350;28;20258;-71
2022/09/03 00:31:37;;;;;;;14.20;12.90;;;;;;;21.66;100.00;99173.53;5071164;28;20648;-71
2022/09/03 00:34:10;;;;;;;15.50;14.13;;;;;;;21.61;100.00;99175.69;5070884;28;20219;-71
2022/09/03 00:36:41;;;;;;;15.53;13.67;;;;;;;21.55;100.00;99170.13;5071342;28;20204;-71
2022/09/03 00:39:10;;;;;;;13.63;12.33;;;;;;;21.44;100.00;99165.72;5070775;28;20204;-71
2022/09/03 00:41:40;;;;;;;14.23;12.83;;;;;;;21.21;100.00;99136.22;5071022;28;20200;-71
2022/09/03 00:44:47;;;;;;;14.53;13.27;;;;;;;21.25;100.00;99155.91;5071039;28;20234;-71
2022/09/03 00:47:20;;;;;;;14.57;13.23;;;;;;;21.23;100.00;99156.97;5040069;28;20202;-71
2022/09/03 00:50:01;;;;;;;17.00;13.80;;;;;;;21.21;100.00;99153.66;5070614;28;20212;-71
2022/09/03 00:52:44;;;;;;;15.97;13.60;;;;;;;21.23;100.00;99164.78;5070493;28;20224;-71
2022/09/03 00:55:21;;;;;;;15.00;13.53;;;;;;;21.19;100.00;99155.56;5070450;28;20227;-71
2022/09/03 00:58:03;;;;;;;14.60;13.40;;;;;;;21.15;100.00;99164.56;5070515;28;20205;-71
2022/09/03 01:00:30;;;;;;;14.97;13.37;;;;;;;20.97;100.00;99155.53;5070669;28;20209;-71
2022/09/03 01:03:06;;;;;;;15.57;14.03;;;;;;;20.89;100.00;99158.69;5070531;28;20280;-71
2022/09/03 01:06:03;;;;;;;15.57;14.23;;;;;;;20.76;100.00;99158.81;5070670;28;20207;-71
2022/09/03 01:08:49;;;;;;;15.00;13.67;;;;;;;20.71;100.00;99155.69;5070808;28;20288;-71
2022/09/03 01:11:25;;;;;;;15.20;13.73;;;;;;;20.67;100.00;99159.50;5070691;28;20232;-71
2022/09/03 01:14:01;;;;;;;15.87;14.17;;;;;;;20.48;100.00;99148.81;5070573;28;20203;-71
2022/09/03 01:16:43;;;;;;;15.87;14.47;;;;;;;20.57;100.00;99163.75;5070226;28;20205;-70
2022/09/03 01:19:34;;;;;;;16.73;14.93;;;;;;;20.52;100.00;99159.81;5070636;28;20572;-71
2022/09/03 01:22:19;;;;;;;15.37;14.07;;;;;;;20.45;100.00;99154.25;5069706;28;20198;-71
2022/09/03 01:25:12;;;;;;;14.13;12.73;;;;;;;20.48;100.00;99153.19;5068739;28;20222;-70
2022/09/03 01:27:49;;;;;;;15.23;13.70;;;;;;;20.36;100.00;99139.28;5068571;28;20278;-71
2022/09/03 01:30:21;;;;;;;14.63;13.33;;;;;;;20.40;100.00;99156.34;5070252;28;20221;-69
2022/09/03 01:32:56;;;;;;;15.67;14.00;;;;;;;20.36;100.00;99167.91;5069549;28;20921;-71
2022/09/03 01:35:30;;;;;;;15.67;14.17;;;;;;;20.32;100.00;99164.72;5070256;28;20251;-71
2022/09/03 01:38:14;;;;;;;16.67;15.07;;;;;;;20.29;100.00;99159.72;5069720;28;20193;-71
2022/09/03 01:40:52;;;;;;;20.17;14.63;;;;;;;20.29;100.00;99156.31;5069874;28;20204;-71
2022/09/03 01:43:35;;;;;;;18.30;14.30;;;;;;;20.21;100.00;99153.41;5070572;28;20218;-71
2022/09/03 01:46:12;;;;;;;17.53;14.17;;;;;;;20.21;100.00;99156.00;5070239;28;20232;-71
2022/09/03 01:48:45;;;;;;;16.57;15.07;;;;;;;20.13;100.00;99163.56;5069966;28;20201;-71
2022/09/03 01:51:20;;;;;;;18.03;15.67;;;;;;;20.13;100.00;99153.16;5069788;28;20207;-71
2022/09/03 01:54:19;;;;;;;15.90;14.40;;;;;;;20.11;100.00;99155.03;5069875;28;20196;-71
2022/09/03 01:57:12;;;;;;;15.57;13.53;;;;;;;20.07;100.00;99153.56;5069885;28;20626;-71
2022/09/03 01:59:46;;;;;;;14.53;13.23;;;;;;;20.08;100.00;99155.25;5069949;28;20233;-71
2022/09/03 02:02:20;;;;;;;18.00;14.07;;;;;;;20.02;100.00;99143.50;5069679;28;20210;-71
2022/09/03 02:04:59;;;;;;;16.27;14.43;;;;;;;20.10;100.00;99158.56;5070947;28;20827;-71
2022/09/03 02:07:28;;;;;;;16.03;14.43;;;;;;;20.09;100.00;99151.72;5070357;28;20718;-71
2022/09/03 02:09:54;;;;;;;15.60;13.53;;;;;;;20.11;100.00;99160.22;5069924;28;20204;-71
2022/09/03 02:12:21;;;;;;;15.47;13.90;;;;;;;20.11;100.00;99165.44;5069816;28;20674;-71
2022/09/03 02:14:48;;;;;;;17.97;13.27;;;;;;;20.05;100.00;99151.09;5069874;28;20190;-71
2022/09/03 02:17:17;;;;;;;15.63;13.97;;;;;;;20.08;100.00;99169.09;5069230;28;20196;-71
2022/09/03 02:19:44;;;;;;;27.63;13.67;;;;;;;20.05;100.00;99166.72;5069799;28;20207;-71
2022/09/03 02:22:13;;;;;;;16.70;13.80;;;;;;;20.07;100.00;99174.38;5068496;28;20590;-70
2022/09/03 02:24:40;;;;;;;15.07;13.63;;;;;;;20.09;100.00;99172.53;5068444;28;20226;-71
2022/09/03 02:27:06;;;;;;;14.47;13.23;;;;;;;20.12;100.00;99177.50;5069463;28;20217;-71
2022/09/03 02:29:33;;;;;;;14.43;13.00;;;;;;;20.09;100.00;99175.13;5069861;28;20199;-71
2022/09/03 02:32:00;;;;;;;14.57;13.27;;;;;;;20.11;100.00;99183.66;5069865;28;20592;-71
2022/09/03 02:34:29;;;;;;;14.13;12.93;;;;;;;20.14;100.00;99186.03;5070965;28;20210;-71
2022/09/03 02:36:56;;;;;;;15.00;13.50;;;;;;;20.17;100.00;99183.19;5073075;28;20671;-72
2022/09/03 02:39:23;;;;;;;13.63;12.53;;;;;;;20.18;100.00;99182.25;5072925;28;20201;-71
2022/09/03 02:41:54;;;;;;;13.70;12.60;;;;;;;20.19;100.00;99189.97;5072982;28;20209;-71
2022/09/03 02:44:29;;;;;;;13.80;12.47;;;;;;;20.10;100.00;99187.19;5071727;28;20703;-71
2022/09/03 02:47:01;;;;;;;14.13;12.53;;;;;;;20.10;100.00;99189.78;5073074;28;20294;-71
2022/09/03 02:49:29;;;;;;;14.60;13.30;;;;;;;20.06;100.00;99188.38;5073175;28;20201;-71
2022/09/03 02:51:59;;;;;;;13.70;12.30;;;;;;;20.07;100.00;99183.03;5073356;28;20561;-71
2022/09/03 02:54:27;;;;;;;15.43;11.80;;;;;;;20.07;100.00;99184.78;5073104;28;20201;-71
2022/09/03 02:56:54;;;;;;;15.27;12.57;;;;;;;19.95;100.00;99159.69;5072876;28;20214;-72
2022/09/03 02:59:22;;;;;;;13.97;12.87;;;;;;;20.10;100.00;99179.38;5071972;28;20208;-71
2022/09/03 03:01:49;;;;;;;14.53;13.33;;;;;;;20.09;100.00;99183.78;5072441;28;20231;-71
2022/09/03 03:04:16;;;;;;;14.50;12.73;;;;;;;20.12;100.00;99191.34;5073636;28;20306;-71
2022/09/03 03:06:44;;;;;;;14.93;11.83;;;;;;;20.17;100.00;99193.59;5072755;28;20198;-71
2022/09/03 03:09:11;;;;;;;12.87;11.77;;;;;;;20.22;100.00;99194.97;5073111;28;20557;-71
2022/09/03 03:11:39;;;;;;;15.03;13.43;;;;;;;20.25;100.00;99199.09;5072475;28;20199;-71
2022/09/03 03:14:05;;;;;;;13.77;12.67;;;;;;;20.25;100.00;99188.69;5072866;28;20197;-71
2022/09/03 03:16:32;;;;;;;13.27;11.97;;;;;;;20.20;100.00;99188.19;5073004;28;20599;-71
2022/09/03 03:18:59;;;;;;;12.70;11.50;;;;;;;19.97;100.00;99163.81;5071059;28;20200;-71
2022/09/03 03:21:26;;;;;;;12.87;11.67;;;;;;;20.03;100.00;99184.22;5072719;28;20232;-71
2022/09/03 03:23:55;;;;;;;11.53;10.10;;;;;;;20.01;100.00;99180.03;5071474;28;20228;-71
2022/09/03 03:26:23;;;;;;;14.17;11.97;;;;;;;19.93;100.00;99178.81;5072286;28;20192;-71
2022/09/03 03:28:53;;;;;;;12.37;11.27;;;;;;;20.03;100.00;99178.19;5073561;28;20549;-71
2022/09/03 03:31:21;;;;;;;12.43;11.23;;;;;;;19.98;100.00;99164.66;5072280;28;20197;-71
2022/09/03 03:33:51;;;;;;;11.70;10.63;;;;;;;20.12;100.00;99172.31;5072201;28;20210;-71
2022/09/03 03:36:18;;;;;;;12.13;11.20;;;;;;;20.14;100.00;99180.81;5072220;28;20251;-71
2022/09/03 03:38:45;;;;;;;12.00;10.83;;;;;;;20.18;100.00;99177.06;5072454;28;20202;-71
2022/09/03 03:41:15;;;;;;;12.23;11.03;;;;;;;20.19;100.00;99178.72;5072327;28;20203;-71
2022/09/03 03:43:45;;;;;;;11.27;10.30;;;;;;;20.14;100.00;99184.25;5072310;28;20222;-71
2022/09/03 03:46:13;;;;;;;11.23;10.03;;;;;;;19.99;100.00;99184.53;5071282;28;20218;-71
2022/09/03 03:48:41;;;;;;;11.73;10.47;;;;;;;20.03;100.00;99192.03;5072096;28;20209;-72
2022/09/03 03:51:09;;;;;;;11.87;10.97;;;;;;;19.93;100.00;99189.22;5072843;28;20623;-71
2022/09/03 03:53:38;;;;;;;12.50;10.97;;;;;;;19.85;100.00;99181.16;5072189;28;20264;-71
2022/09/03 03:56:08;;;;;;;11.50;10.50;;;;;;;19.86;100.00;99187.19;5071619;28;21024;-71
2022/09/03 03:58:37;;;;;;;12.27;10.13;;;;;;;19.76;100.00;99171.41;5071785;28;20209;-71
2022/09/03 04:01:06;;;;;;;10.73;9.90;;;;;;;19.67;100.00;99172.06;5071813;28;20201;-71
2022/09/03 04:03:33;;;;;;;12.07;10.80;;;;;;;19.82;100.00;99191.78;5071583;28;20189;-71
2022/09/03 04:06:01;;;;;;;11.17;9.93;;;;;;;19.82;100.00;99196.97;5071932;28;20214;-71
2022/09/03 04:08:28;;;;;;;11.40;10.33;;;;;;;19.79;100.00;99199.81;5070666;28;20230;-71
2022/09/03 04:11:00;;;;;;;10.67;9.87;;;;;;;19.81;100.00;99199.69;5071784;28;20202;-71
2022/09/03 04:13:29;;;;;;;12.17;11.23;;;;;;;19.81;100.00;99202.28;5071235;28;20204;-71
2022/09/03 04:16:02;;;;;;;11.07;9.83;;;;;;;19.79;100.00;99202.41;5070276;28;20204;-71
2022/09/03 04:18:29;;;;;;;9.47;8.77;;;;;;;19.58;100.00;99188.28;5070999;28;20209;-71
2022/09/03 04:21:00;;;;;;;11.07;10.07;;;;;;;19.68;100.00;99204.91;5070635;28;20676;-72
2022/09/03 04:23:28;;;;;;;11.27;8.90;;;;;;;19.67;100.00;99208.47;5071374;28;20687;-71
2022/09/03 04:25:54;;;;;;;10.03;9.23;;;;;;;19.63;100.00;99209.63;5071223;28;20225;-72
2022/09/03 04:28:21;;;;;;;9.77;8.87;;;;;;;19.67;100.00;99207.66;5071529;28;20651;-72
2022/09/03 04:30:48;;;;;;;8.27;7.60;;;;;;;19.56;100.00;99195.38;5073637;28;20637;-71
2022/09/03 04:33:16;;;;;;;7.77;7.07;;;;;;;19.68;100.00;99220.53;5071651;28;20193;-71
2022/09/03 04:35:43;;;;;;;7.87;7.40;;;;;;;19.73;100.00;99213.25;5070713;28;20571;-72
2022/09/03 04:38:10;;;;;;;6.37;5.77;;;;;;;19.79;100.00;99211.97;5071015;28;20214;-71
2022/09/03 04:40:38;;;;;;;6.67;6.10;;;;;;;19.82;100.00;99217.78;5070798;28;20204;-71
2022/09/03 04:43:05;;;;;;;6.00;5.60;;;;;;;19.92;100.00;99208.41;5070772;28;20306;-72
2022/09/03 04:45:31;;;;;;;5.20;4.80;;;;;;;19.93;100.00;99199.63;5070576;28;20244;-71
2022/09/03 04:47:59;;;;;;;5.07;4.87;;;;;;;20.11;100.00;99215.72;5070559;28;20194;-71
2022/09/03 04:50:29;;;;;;;5.10;4.80;;;;;;;20.16;100.00;99223.19;5071086;28;20706;-70
2022/09/03 04:52:59;;;;;;;4.30;4.10;;;;;;;20.21;100.00;99218.47;5071120;28;20672;-71
2022/09/03 04:55:26;;;;;;;4.73;4.30;;;;;;;20.27;100.00;99236.28;5071267;28;20231;-72
2022/09/03 04:57:53;;;;;;;5.30;4.13;;;;;;;20.37;100.00;99229.47;5070068;28;20203;-71
2022/09/03 05:00:20;;;;;;;3.93;3.63;;;;;;;20.44;100.00;99230.69;5070914;28;20563;-71
2022/09/03 05:02:48;;;;;;;3.30;3.10;;;;;;;20.46;100.00;99228.78;5070382;28;20201;-71
2022/09/03 05:05:15;;;;;;;3.40;3.30;;;;;;;20.60;100.00;99246.03;5070634;28;20767;-72
2022/09/03 05:07:43;;;;;;;4.27;3.87;;;;;;;20.71;100.00;99244.28;5070546;28;20195;-71
2022/09/03 05:10:15;;;;;;;3.90;3.60;;;;;;;20.84;100.00;99237.22;5070711;28;20205;-72
2022/09/03 05:12:42;;;;;;;3.43;3.33;;;;;;;20.91;100.00;99230.59;5069765;28;20291;-71
2022/09/03 05:15:09;;;;;;;3.70;3.40;;;;;;;21.07;100.00;99239.84;5069358;28;20209;-71
2022/09/03 05:17:37;;;;;;;3.40;3.20;;;;;;;21.19;100.00;99249.41;5069435;28;20207;-71
2022/09/03 05:20:05;;;;;;;4.00;3.67;;;;;;;21.25;100.00;99243.72;5069843;28;20213;-71
2022/09/03 05:22:32;;;;;;;3.23;3.03;;;;;;;21.36;100.00;99251.53;5071390;28;20196;-71
2022/09/03 05:25:00;;;;;;;3.80;3.60;;;;;;;21.53;100.00;99243.25;5065797;28;20239;-71
2022/09/03 05:27:27;;;;;;;3.30;3.10;;;;;;;21.71;100.00;99267.09;5063887;28;20222;-71
2022/09/03 05:29:54;;;;;;;3.33;3.17;;;;;;;21.97;100.00;99264.13;5068498;28;20295;-71
2022/09/03 05:32:21;;;;;;;2.90;2.80;;;;;;;22.13;100.00;99268.97;5066697;28;20196;-71
2022/09/03 05:34:48;;;;;;;3.10;2.90;;;;;;;22.22;100.00;99272.63;5066839;28;20196;-73
2022/09/03 05:37:14;;;;;;;3.47;3.27;;;;;;;22.31;100.00;99269.28;5068026;28;20212;-70
2022/09/03 05:39:41;;;;;;;2.70;2.60;;;;;;;22.43;100.00;99266.50;5068461;28;20291;-72
2022/09/03 05:42:11;;;;;;;2.60;2.47;;;;;;;22.49;100.00;99266.00;5069308;28;20203;-72
2022/09/03 05:44:38;;;;;;;3.67;2.90;;;;;;;22.55;100.00;99269.91;5069314;28;20211;-70
2022/09/03 05:47:04;;;;;;;2.87;2.67;;;;;;;22.70;100.00;99283.53;5069231;28;20615;-73
2022/09/03 05:49:31;;;;;;;2.93;2.83;;;;;;;22.84;100.00;99278.81;5069204;28;20208;-72
2022/09/03 05:51:58;;;;;;;2.53;2.43;;;;;;;23.00;100.00;99281.81;5069372;28;20200;-72
2022/09/03 05:54:26;;;;;;;3.30;3.10;;;;;;;23.09;100.00;99282.03;5068736;28;20276;-71
2022/09/03 05:56:53;;;;;;;2.47;2.30;;;;;;;23.07;100.00;99276.13;5067757;28;20652;-71
2022/09/03 05:59:21;;;;;;;3.67;2.50;;;;;;;23.18;100.00;99276.03;5069520;28;20200;-70
2022/09/03 06:01:48;;;;;;;2.13;2.03;;;;;;;23.31;100.00;99274.03;5068020;28;20579;-72
2022/09/03 06:04:16;;;;;;;2.50;2.40;;;;;;;23.54;100.00;99280.81;5069095;28;20196;-72
2022/09/03 06:06:45;;;;;;;3.23;2.07;;;;;;;23.55;100.00;99286.88;5067834;28;20200;-70
2022/09/03 06:09:14;;;;;;;2.50;2.40;;;;;;;23.54;99.52;99286.03;5069863;28;20211;-71
2022/09/03 06:11:42;;;;;;;3.10;2.33;;;;;;;23.59;100.00;99283.03;5067338;28;20202;-70
2022/09/03 06:14:11;;;;;;;2.87;2.47;;;;;;;23.77;99.82;99282.28;5070896;28;20295;-72
2022/09/03 06:16:41;;;;;;;2.53;1.97;;;;;;;23.91;99.21;99284.53;5069579;28;20208;-72
2022/09/03 06:19:09;;;;;;;2.50;2.30;;;;;;;24.04;99.52;99286.91;5070445;28;20211;-71
2022/09/03 06:21:41;;;;;;;2.47;2.27;;;;;;;24.13;98.30;99293.19;5070128;28;20290;-72
2022/09/03 06:24:09;;;;;;;3.70;3.40;;;;;;;24.24;99.47;99287.81;5071260;28;20204;-72
2022/09/03 06:26:36;;;;;;;5.53;3.63;;;;;;;24.35;98.04;99295.56;5070964;28;20220;-72
2022/09/03 06:29:03;;;;;;;4.93;4.37;;;;;;;24.39;98.09;99299.56;5070748;28;20204;-72
2022/09/03 06:31:30;;;;;;;3.90;3.77;;;;;;;24.52;95.79;99294.91;5070750;28;20236;-72
2022/09/03 06:33:59;;;;;;;4.40;3.77;;;;;;;24.64;94.10;99293.78;5070775;28;20200;-72
2022/09/03 06:36:26;;;;;;;4.73;4.10;;;;;;;24.83;94.88;99299.06;5070742;28;20293;-72
2022/09/03 06:38:54;;;;;;;3.67;3.47;;;;;;;24.87;96.04;99289.97;5071290;28;20208;-72
2022/09/03 06:41:23;;;;;;;4.10;3.90;;;;;;;24.96;96.30;99299.63;5065312;28;20207;-74
2022/09/03 06:43:52;;;;;;;5.17;4.87;;;;;;;25.16;93.43;99304.84;5065837;28;20223;-73
2022/09/03 06:46:21;;;;;;;7.50;3.80;;;;;;;25.40;90.78;99310.44;5073885;28;20273;-70
2022/09/03 06:48:49;;;;;;;3.80;3.60;;;;;;;25.42;88.54;99314.59;5069479;28;20194;-72
2022/09/03 06:51:20;;;;;;;4.40;4.10;;;;;;;25.42;89.04;99303.25;5070316;28;20200;-72
2022/09/03 06:53:48;;;;;;;3.83;3.63;;;;;;;25.61;91.83;99305.84;5070154;28;20196;-73
2022/09/03 06:56:16;;;;;;;3.80;3.60;;;;;;;25.66;89.04;99308.03;5067830;28;20227;-73
2022/09/03 06:58:47;;;;;;;3.10;3.00;;;;;;;25.81;87.64;99307.44;5069267;28;20212;-72
2022/09/03 07:01:16;;;;;;;3.37;3.07;;;;;;;25.81;87.89;99307.44;5072112;28;20208;-72
2022/09/03 07:03:44;;;;;;;3.50;3.30;;;;;;;25.85;87.72;99314.03;5069659;28;20206;-72
2022/09/03 07:06:13;;;;;;;2.90;2.80;;;;;;;26.04;86.81;99308.69;5070111;28;20244;-72
2022/09/03 07:08:42;;;;;;;3.17;2.97;;;;;;;26.27;83.64;99310.97;5064814;28;20049;-72
2022/09/03 07:11:14;;;;;;;3.63;3.53;;;;;;;26.45;85.91;99309.19;5068568;28;20217;-73
2022/09/03 07:13:44;;;;;;;3.73;3.53;;;;;;;26.65;84.21;99321.22;5065544;28;20254;-70
2022/09/03 07:16:12;;;;;;;5.23;4.37;;;;;;;26.69;86.57;99313.88;5069496;28;20215;-72
2022/09/03 07:18:39;;;;;;;7.27;3.93;;;;;;;26.64;83.83;99311.66;5071456;28;20258;-72
2022/09/03 07:21:08;;;;;;;4.03;3.77;;;;;;;26.83;83.14;99322.06;5069323;28;20337;-73
2022/09/03 07:23:36;;;;;;;3.17;3.03;;;;;;;26.89;82.41;99320.63;5064166;28;20202;-72
2022/09/03 07:26:06;;;;;;;3.70;3.50;;;;;;;26.60;82.91;99315.56;5071002;28;20220;-72
2022/09/03 07:28:35;;;;;;;3.67;3.40;;;;;;;26.66;85.63;99328.13;5071257;28;20208;-72
2022/09/03 07:31:05;;;;;;;3.57;3.37;;;;;;;26.60;84.27;99329.56;5070319;28;20691;-73
2022/09/03 07:33:32;;;;;;;4.43;3.10;;;;;;;26.82;84.55;99325.66;5070558;28;20196;-73
2022/09/03 07:36:04;;;;;;;3.07;2.97;;;;;;;26.80;82.12;99332.88;5069903;28;20192;-71
2022/09/03 07:38:31;;;;;;;1.97;1.87;;;;;;;26.89;81.16;99326.72;5067274;28;20656;-72
2022/09/03 07:40:59;;;;;;;2.37;2.27;;;;;;;26.86;80.74;99337.56;5069257;28;20207;-72
2022/09/03 07:43:28;;;;;;;3.63;2.30;;;;;;;26.99;82.50;99337.16;5070202;28;20200;-73
2022/09/03 07:45:56;;;;;;;2.10;2.00;;;;;;;27.06;81.32;99344.31;5070706;28;20265;-71
2022/09/03 07:48:24;;;;;;;1.90;1.80;;;;;;;27.06;80.58;99346.94;5067205;28;20199;-72
2022/09/03 07:50:50;;;;;;;1.80;1.80;;;;;;;27.05;81.04;99341.81;5068872;28;20208;-69
2022/09/03 07:53:19;;;;;;;2.20;2.10;;;;;;;27.25;81.14;99337.19;5071101;28;20196;-70
2022/09/03 07:55:46;;;;;;;2.40;2.30;;;;;;;27.38;79.89;99340.25;5070988;28;20599;-73
2022/09/03 07:58:13;;;;;;;3.00;2.80;;;;;;;27.14;79.09;99340.94;5067770;28;20248;-73
2022/09/03 08:00:41;;;;;;;4.63;3.23;;;;;;;27.16;79.98;99346.03;5064780;28;20666;-72
2022/09/03 08:03:08;;;;;;;3.10;3.00;;;;;;;27.21;80.14;99341.13;5064237;28;20208;-72
2022/09/03 08:05:37;;;;;;;3.13;3.03;;;;;;;27.27;80.02;99340.53;5065645;28;20224;-73
2022/09/03 08:08:05;;;;;;;4.50;3.13;;;;;;;27.54;80.17;99335.97;5069523;28;20209;-71
2022/09/03 08:10:35;;;;;;;3.40;3.20;;;;;;;27.60;80.08;99321.34;5066817;28;20202;-71
2022/09/03 08:13:04;;;;;;;2.60;2.50;;;;;;;27.54;79.26;99330.69;5063403;28;20199;-72
2022/09/03 08:15:31;;;;;;;3.47;3.27;;;;;;;27.48;81.08;99330.50;5066515;28;20200;-71
2022/09/03 08:18:00;;;;;;;3.60;3.40;;;;;;;27.52;79.67;99330.03;5067266;28;20200;-73
2022/09/03 08:20:27;;;;;;;3.10;2.90;;;;;;;27.66;78.41;99325.97;5069232;28;20682;-71
2022/09/03 08:23:01;;;;;;;3.60;3.40;;;;;;;27.70;79.00;99329.97;5068368;28;20572;-71
2022/09/03 08:25:27;;;;;;;3.60;3.43;;;;;;;27.59;81.64;99320.50;5067405;28;20251;-70
2022/09/03 08:27:54;;;;;;;3.70;3.50;;;;;;;27.57;81.03;99321.66;5068139;28;20200;-71
2022/09/03 08:30:21;;;;;;;5.70;3.00;;;;;;;27.66;78.48;99331.25;5069052;28;20536;-71
2022/09/03 08:32:48;;;;;;;3.07;2.87;;;;;;;27.88;77.03;99325.47;5068563;28;20204;-72
2022/09/03 08:35:16;;;;;;;3.50;3.30;;;;;;;28.06;81.79;99317.47;5066819;28;20208;-73
2022/09/03 08:37:43;;;;;;;3.80;3.60;;;;;;;28.27;78.69;99324.97;5064611;28;20197;-75
2022/09/03 08:40:11;;;;;;;3.23;3.03;;;;;;;28.26;76.56;99328.59;5067351;28;20208;-76
2022/09/03 08:42:53;;;;;;;3.90;3.70;;;;;;;28.19;78.56;99319.66;5068910;28;20200;-70
2022/09/03 08:45:21;;;;;;;4.13;3.67;;;;;;;28.15;78.16;99327.06;5070483;28;20230;-72
2022/09/03 08:47:52;;;;;;;3.60;3.40;;;;;;;28.32;76.48;99322.66;5070671;28;20196;-72
2022/09/03 08:50:25;;;;;;;4.47;4.17;;;;;;;28.41;75.96;99321.69;5071080;28;20191;-72
2022/09/03 08:52:58;;;;;;;4.00;3.80;;;;;;;28.26;79.07;99312.75;5071731;28;20193;-72
2022/09/03 08:55:27;;;;;;;4.40;4.10;;;;;;;28.25;79.68;99305.84;5069883;28;20481;-67
2022/09/03 08:58:01;;;;;;;5.27;4.77;;;;;;;28.35;76.10;99307.34;5070468;28;20672;-67
2022/09/03 09:00:36;;;;;;;3.97;3.67;;;;;;;28.34;76.38;99305.69;5070594;28;20204;-67
2022/09/03 09:03:21;;;;;;;4.37;4.13;;;;;;;28.61;78.94;99302.78;5070164;28;20195;-67
2022/09/03 09:05:55;;;;;;;4.40;4.10;;;;;;;28.71;74.86;99305.31;5070431;28;20683;-67
2022/09/03 09:08:33;;;;;;;4.47;4.23;;;;;;;28.75;75.93;99309.28;5068909;28;20195;-67
2022/09/03 09:11:06;;;;;;;4.67;4.33;;;;;;;28.78;75.18;99300.19;5070815;28;20203;-67
2022/09/03 09:13:43;;;;;;;4.00;3.80;;;;;;;28.90;74.78;99302.34;5070658;28;20210;-68
2022/09/03 09:16:19;;;;;;;4.60;4.40;;;;;;;29.06;75.37;99318.16;5071222;28;20207;-67
2022/09/03 09:18:57;;;;;;;4.83;4.27;;;;;;;28.93;73.25;99317.84;5071052;28;20275;-67
2022/09/03 09:21:29;;;;;;;4.13;3.93;;;;;;;29.05;73.58;99316.50;5070935;28;20207;-67
2022/09/03 09:24:01;;;;;;;4.53;4.23;;;;;;;29.23;71.40;99319.00;5070835;28;20204;-67
2022/09/03 09:26:28;;;;;;;4.07;3.78;;;;;;;29.34;71.74;99320.50;5070919;28;20216;-67
2022/09/03 09:29:01;;;;;;;3.73;3.53;;;;;;;29.45;72.41;99328.06;5071299;28;20207;-67
2022/09/03 09:31:29;;;;;;;4.43;4.23;;;;;;;29.41;71.13;99321.44;5070775;28;20204;-67
2022/09/03 09:34:05;;;;;;;3.83;3.63;;;;;;;29.45;72.19;99326.25;5070084;28;20196;-67
2022/09/03 09:36:42;;;;;;;4.63;4.43;;;;;;;29.64;72.43;99317.94;5071018;28;20626;-67
2022/09/03 09:39:09;;;;;;;5.43;4.13;;;;;;;29.72;73.50;99318.91;5071184;28;20584;-67
2022/09/03 09:41:36;;;;;;;3.78;3.58;;;;;;;29.78;69.29;99319.06;5070655;28;20203;-67
2022/09/03 09:44:05;;;;;;;4.05;3.85;;;;;;;29.87;68.17;99327.81;5071314;28;20557;-67
2022/09/03 09:46:36;;;;;;;4.28;3.88;;;;;;;29.99;73.55;99321.16;5074699;28;20215;-67
2022/09/03 09:49:03;;;;;;;6.43;4.40;;;;;;;29.98;69.94;99319.53;5074665;28;20257;-67
2022/09/03 09:51:32;;;;;;;4.55;4.25;;;;;;;29.98;70.43;99315.06;5074612;28;20568;-67
2022/09/03 09:54:12;;;;;;;9.27;4.00;;;;;;;29.95;69.72;99325.16;5074776;28;20200;-67
2022/09/03 09:56:39;;;;;;;4.38;4.15;;;;;;;29.98;70.44;99314.22;5074004;28;20238;-67
2022/09/03 09:59:07;;;;;;;4.50;4.10;;;;;;;29.90;74.45;99308.97;5074781;28;20250;-67
2022/09/03 10:01:37;;;;;;;4.10;3.83;;;;;;;30.01;68.65;99304.13;5073784;28;20204;-67
2022/09/03 10:04:10;;;;;;;3.70;3.50;;;;;;;30.14;70.05;99304.41;5073801;28;20205;-67
2022/09/03 10:06:55;;;;;;;4.22;3.97;;;;;;;30.16;71.71;99312.97;5073245;28;20599;-67
2022/09/03 10:09:25;;;;;;;3.72;3.53;;;;;;;30.29;71.86;99303.66;5073669;28;20241;-67
2022/09/03 10:12:14;;;;;;;4.03;3.70;;;;;;;30.26;69.79;99296.06;5074380;28;20210;-67
2022/09/03 10:14:46;;;;;;;4.45;4.25;;;;;;;30.30;72.11;99302.66;5074084;28;20357;-67
2022/09/03 10:17:19;;;;;;;4.85;4.60;;;;;;;30.50;72.38;99299.41;5074243;28;20192;-67
2022/09/03 10:22:45;;;;;;;4.07;3.78;;;;;;;30.82;68.19;99292.25;5071100;28;20188;-67
2022/09/03 10:25:15;;;;;;;4.22;4.03;;;;;;;30.73;64.28;99292.28;5074573;28;20294;-67
2022/09/03 10:27:44;;;;;;;3.53;3.33;;;;;;;30.64;63.79;99295.19;5074071;28;20223;-67
2022/09/03 10:30:13;;;;;;;3.63;3.42;;;;;;;30.69;67.03;99292.84;5074297;28;20299;-67
2022/09/03 10:32:48;;;;;;;3.38;3.28;;;;;;;30.73;62.67;99279.06;5073909;28;20256;-67
2022/09/03 10:35:23;;;;;;;3.97;3.78;;;;;;;30.75;66.73;99278.91;5074404;28;20203;-67
2022/09/03 10:38:01;;;;;;;3.63;3.42;;;;;;;30.84;62.44;99284.94;5073893;28;20191;-67
2022/09/03 10:40:35;;;;;;;3.65;3.45;;;;;;;30.66;61.80;99290.56;5074072;28;20199;-67
2022/09/03 10:43:18;;;;;;;4.13;3.83;;;;;;;30.69;65.99;99276.97;5073478;28;20231;-67
2022/09/03 10:45:58;;;;;;;4.13;3.88;;;;;;;30.80;64.45;99284.47;5073800;28;20556;-67
2022/09/03 10:48:41;;;;;;;5.25;4.07;;;;;;;30.84;61.91;99285.75;5073750;28;20688;-67
2022/09/03 10:51:16;;;;;;;3.92;3.63;;;;;;;30.83;64.08;99289.41;5073864;28;20188;-67
2022/09/03 10:54:01;;;;;;;3.65;3.53;;;;;;;30.81;62.99;99285.28;5073386;28;20205;-67
2022/09/03 10:56:35;;;;;;;3.28;3.17;;;;;;;30.61;62.30;99287.59;5073325;28;20219;-67
2022/09/03 10:59:16;;;;;;;5.38;3.55;;;;;;;30.65;62.33;99286.25;5073089;28;20201;-67
2022/09/03 11:01:49;;;;;;;4.30;4.00;;;;;;;30.66;64.07;99279.97;5071221;28;20205;-67
2022/09/03 11:04:26;;;;;;;5.22;3.50;;;;;;;30.57;63.34;99283.66;5071530;28;20209;-67
2022/09/03 11:06:56;;;;;;;3.50;3.40;;;;;;;30.67;62.87;99289.53;5073319;28;20270;-66
2022/09/03 11:09:31;;;;;;;3.80;3.50;;;;;;;30.75;65.00;99281.53;5072886;28;20212;-67
2022/09/03 11:12:03;;;;;;;3.60;3.30;;;;;;;30.80;61.27;99284.47;5072535;28;20563;-67
2022/09/03 11:14:35;;;;;;;3.50;3.20;;;;;;;30.71;61.92;99286.38;5073136;28;20206;-67
2022/09/03 11:17:09;;;;;;;3.38;3.08;;;;;;;30.70;60.83;99291.81;5072981;28;20656;-67
2022/09/03 11:19:45;;;;;;;8.73;4.40;;;;;;;30.69;64.57;99285.72;5073166;28;20214;-67
2022/09/03 11:22:16;;;;;;;3.20;3.10;;;;;;;30.71;62.89;99278.44;5072840;28;20203;-67
2022/09/03 11:24:50;;;;;;;4.05;3.63;;;;;;;30.78;62.61;99280.34;5072971;28;20296;-67
2022/09/03 11:27:36;;;;;;;3.63;3.42;;;;;;;30.74;61.14;99279.88;5072840;28;20227;-67
2022/09/03 11:30:06;;;;;;;3.47;3.38;;;;;;;30.76;61.38;99277.06;5073021;28;20552;-66
2022/09/03 11:32:45;;;;;;;4.88;3.88;;;;;;;30.70;63.49;99281.22;5072823;28;20204;-67
2022/09/03 11:35:17;;;;;;;4.45;4.00;;;;;;;30.74;61.62;99274.59;5072667;28;20235;-67
2022/09/03 11:37:55;;;;;;;4.28;4.00;;;;;;;30.88;63.37;99271.19;5073062;28;20192;-67
2022/09/03 11:40:32;;;;;;;4.63;3.50;;;;;;;30.94;61.97;99270.47;5072886;28;20210;-67
2022/09/03 11:43:07;;;;;;;3.70;3.50;;;;;;;30.97;62.18;99267.47;5072680;28;20199;-67
2022/09/03 11:45:36;;;;;;;4.40;4.20;;;;;;;31.01;60.01;99260.00;5072994;28;20682;-67